createdAt,value
2019-05-15T00:01:08.839Z,46.55
2019-05-15T00:03:39.179Z,46.27
2019-05-15T00:06:09.706Z,47.21
2019-05-15T00:08:39.154Z,47.29
2019-05-15T00:11:08.865Z,47.17
2019-05-15T00:13:38.879Z,46.93
2019-05-15T00:16:08.727Z,47.41
2019-05-15T00:18:39.054Z,47.55
2019-05-15T00:21:09.481Z,47.81
2019-05-15T00:23:38.947Z,47.70
2019-05-15T00:26:09.228Z,48.39
2019-05-15T00:28:38.976Z,47.64
2019-05-15T00:31:09.221Z,47.75
2019-05-15T00:33:39.289Z,48.02
2019-05-15T00:36:09.024Z,47.77
2019-05-15T00:38:39.068Z,48.91
2019-05-15T00:41:09.688Z,48.44
2019-05-15T00:43:38.936Z,47.92
2019-05-15T00:46:09.151Z,48.21
2019-05-15T00:48:39.825Z,48.32
2019-05-15T00:51:09.463Z,48.67
2019-05-15T00:53:39.132Z,48.78
2019-05-15T00:56:08.842Z,48.69
2019-05-15T00:58:40.217Z,47.83
2019-05-15T01:01:09.530Z,48.57
2019-05-15T01:03:38.970Z,48.30
2019-05-15T01:06:08.512Z,48.21
2019-05-15T01:08:39.396Z,48.51
2019-05-15T01:11:09.138Z,48.46
2019-05-15T01:13:38.869Z,49.07
2019-05-15T01:16:09.251Z,48.44
2019-05-15T01:18:38.725Z,49.35
2019-05-15T01:21:08.615Z,49.86
2019-05-15T01:23:39.051Z,50.05
2019-05-15T01:26:08.519Z,49.27
2019-05-15T01:28:38.414Z,49.58
2019-05-15T01:31:08.634Z,49.96
2019-05-15T01:33:39.186Z,49.68
2019-05-15T01:36:08.689Z,49.62
2019-05-15T01:38:38.863Z,49.83
2019-05-15T01:41:09.757Z,49.78
2019-05-15T01:43:38.910Z,50.30
2019-05-15T01:46:08.676Z,50.61
2019-05-15T01:48:38.722Z,51.70
2019-05-15T01:51:09.302Z,51.03
2019-05-15T01:53:38.653Z,49.77
2019-05-15T01:56:08.436Z,50.13
2019-05-15T01:58:38.196Z,50.14
2019-05-15T02:01:08.369Z,51.57
2019-05-15T02:03:38.562Z,51.45
2019-05-15T02:06:08.559Z,51.19
2019-05-15T02:08:39.354Z,50.71
2019-05-15T02:11:09.215Z,50.27
2019-05-15T02:13:38.884Z,51.07
2019-05-15T02:16:09.137Z,50.88
2019-05-15T02:18:39.127Z,51.13
2019-05-15T02:21:10.303Z,52.89
2019-05-15T02:23:39.805Z,52.97
2019-05-15T02:26:09.307Z,52.05
2019-05-15T02:28:38.572Z,52.50
2019-05-15T02:31:10.518Z,52.33
2019-05-15T02:33:39.971Z,52.58
2019-05-15T02:36:10.485Z,53.27
2019-05-15T02:38:41.011Z,52.97
2019-05-15T02:41:10.958Z,52.90
2019-05-15T02:43:39.862Z,53.54
2019-05-15T02:46:10.259Z,53.91
2019-05-15T02:48:41.014Z,53.59
2019-05-15T02:51:10.610Z,53.70
2019-05-15T02:53:39.978Z,53.15
2019-05-15T02:56:11.353Z,53.14
2019-05-15T02:58:40.262Z,53.39
2019-05-15T03:01:09.667Z,53.56
2019-05-15T03:03:39.291Z,53.65
2019-05-15T03:06:09.902Z,54.25
2019-05-15T03:08:39.973Z,53.08
2019-05-15T03:11:10.549Z,53.08
2019-05-15T03:13:39.639Z,52.34
2019-05-15T03:16:10.133Z,52.61
2019-05-15T03:18:40.036Z,52.39
2019-05-15T03:21:09.494Z,52.16
2019-05-15T03:23:40.532Z,52.64
2019-05-15T03:26:09.849Z,52.38
2019-05-15T03:28:39.433Z,51.54
2019-05-15T03:31:33.319Z,51.82
2019-05-15T03:33:46.351Z,52.42
2019-05-15T03:36:13.309Z,53.04
2019-05-15T03:38:42.070Z,53.19
2019-05-15T03:41:11.676Z,53.19
2019-05-15T03:43:42.871Z,54.70
2019-05-15T03:46:12.735Z,54.88
2019-05-15T03:48:41.628Z,54.69
2019-05-15T03:51:11.030Z,56.17
2019-05-15T03:53:41.072Z,56.26
2019-05-15T03:56:10.247Z,56.83
2019-05-15T03:58:40.243Z,56.83
2019-05-15T04:01:28.262Z,57.35
2019-05-15T04:03:40.815Z,57.47
2019-05-15T04:06:10.374Z,57.63
2019-05-15T04:08:39.722Z,59.69
2019-05-15T04:11:09.488Z,58.53
2019-05-15T04:13:39.609Z,58.99
2019-05-15T04:16:10.400Z,59.05
2019-05-15T04:18:40.026Z,60.22
2019-05-15T04:21:09.852Z,61.03
2019-05-15T04:23:39.523Z,60.83
2019-05-15T04:26:11.048Z,60.83
2019-05-15T04:28:42.252Z,61.08
2019-05-15T04:31:11.720Z,60.52
2019-05-15T04:33:40.698Z,60.48
2019-05-15T04:36:10.221Z,60.98
2019-05-15T04:38:39.615Z,60.81
2019-05-15T04:41:10.165Z,61.82
2019-05-15T04:43:44.549Z,61.06
2019-05-15T04:46:10.327Z,61.51
2019-05-15T04:48:40.043Z,61.63
2019-05-15T04:51:09.939Z,60.82
2019-05-15T04:53:39.830Z,60.63
2019-05-15T04:56:09.948Z,60.95
2019-05-15T04:58:39.778Z,62.19
2019-05-15T05:01:10.178Z,62.10
2019-05-15T05:03:39.812Z,62.14
2019-05-15T05:06:10.071Z,62.39
2019-05-15T05:08:40.052Z,62.32
2019-05-15T05:11:10.115Z,61.58
2019-05-15T05:13:39.504Z,61.57
2019-05-15T05:16:09.825Z,61.28
2019-05-15T05:18:40.995Z,61.10
2019-05-15T05:21:10.229Z,61.55
2019-05-15T05:23:39.323Z,61.22
2019-05-15T05:26:11.124Z,61.01
2019-05-15T05:28:39.155Z,61.66
2019-05-15T05:31:08.968Z,61.75
2019-05-15T05:33:38.266Z,61.83
2019-05-15T05:36:08.173Z,61.56
2019-05-15T05:38:38.766Z,60.76
2019-05-15T05:41:08.534Z,60.10
2019-05-15T05:43:38.376Z,59.94
2019-05-15T05:46:09.258Z,58.62
2019-05-15T05:48:38.575Z,58.03
2019-05-15T05:51:09.305Z,58.05
2019-05-15T05:53:38.578Z,57.07
2019-05-15T05:56:09.095Z,56.79
2019-05-15T05:58:38.961Z,56.08
2019-05-15T06:01:09.631Z,56.29
2019-05-15T06:03:38.933Z,55.50
2019-05-15T06:06:09.747Z,55.12
2019-05-15T06:08:39.621Z,55.10
2019-05-15T06:11:09.725Z,54.94
2019-05-15T06:13:39.066Z,54.61
2019-05-15T06:16:08.883Z,54.91
2019-05-15T06:18:38.783Z,54.36
2019-05-15T06:21:09.341Z,54.71
2019-05-15T06:23:44.866Z,54.74
2019-05-15T06:26:10.016Z,54.22
2019-05-15T06:28:39.572Z,55.23
2019-05-15T06:31:09.200Z,54.10
2019-05-15T06:33:39.100Z,56.14
2019-05-15T06:36:09.325Z,55.77
2019-05-15T06:38:39.347Z,54.96
2019-05-15T06:41:09.108Z,55.59
2019-05-15T06:43:38.847Z,56.16
2019-05-15T06:46:09.357Z,55.74
2019-05-15T06:48:38.289Z,56.25
2019-05-15T06:51:08.857Z,55.60
2019-05-15T06:53:38.596Z,56.06
2019-05-15T06:56:08.748Z,55.23
2019-05-15T06:58:38.649Z,57.38
2019-05-15T07:01:10.177Z,56.42
2019-05-15T07:03:39.594Z,57.37
2019-05-15T07:06:09.826Z,56.80
2019-05-15T07:08:38.644Z,54.74
2019-05-15T07:11:08.732Z,54.87
2019-05-15T07:13:38.422Z,55.42
2019-05-15T07:16:08.447Z,54.69
2019-05-15T07:18:39.073Z,54.30
2019-05-15T07:21:10.286Z,54.36
2019-05-15T07:23:39.349Z,54.12
2019-05-15T07:26:09.659Z,54.85
2019-05-15T07:28:38.571Z,55.07
2019-05-15T07:31:11.493Z,53.71
2019-05-15T07:33:43.338Z,54.17
2019-05-15T07:36:10.562Z,54.17
2019-05-15T07:38:39.456Z,53.24
2019-05-15T07:41:10.182Z,53.87
2019-05-15T07:43:39.696Z,53.85
2019-05-15T07:46:09.420Z,53.63
2019-05-15T07:48:38.631Z,54.62
2019-05-15T07:51:11.536Z,53.85
2019-05-15T07:53:38.850Z,53.87
2019-05-15T07:56:11.690Z,53.57
2019-05-15T07:58:39.190Z,54.49
2019-05-15T08:01:10.023Z,54.64
2019-05-15T08:03:55.030Z,53.42
2019-05-15T08:06:10.572Z,53.50
2019-05-15T08:08:39.641Z,54.49
2019-05-15T08:11:20.132Z,52.73
2019-05-15T08:13:40.317Z,51.99
2019-05-15T08:16:10.128Z,54.41
2019-05-15T08:18:39.500Z,53.19
2019-05-15T08:21:09.151Z,53.20
2019-05-15T08:23:39.099Z,53.18
2019-05-15T08:26:09.216Z,54.11
2019-05-15T08:28:38.409Z,53.53
2019-05-15T08:31:10.271Z,51.20
2019-05-15T08:33:38.889Z,50.15
2019-05-15T08:36:08.590Z,51.49
2019-05-15T08:38:38.332Z,51.02
2019-05-15T08:41:11.371Z,48.78
2019-05-15T08:43:38.506Z,49.62
2019-05-15T08:46:08.493Z,51.43
2019-05-15T08:48:38.334Z,50.76
2019-05-15T08:51:08.729Z,51.75
2019-05-15T08:53:38.205Z,51.53
2019-05-15T08:56:08.529Z,52.04
2019-05-15T08:58:38.325Z,51.23
2019-05-15T09:01:09.689Z,50.43
2019-05-15T09:03:38.933Z,52.15
2019-05-15T09:06:09.054Z,52.40
2019-05-15T09:08:38.998Z,50.46
2019-05-15T09:11:09.482Z,51.92
2019-05-15T09:13:43.444Z,51.31
2019-05-15T09:16:09.738Z,48.96
2019-05-15T09:18:39.253Z,49.89
2019-05-15T09:21:09.103Z,49.29
2019-05-15T09:23:38.806Z,50.40
2019-05-15T09:26:09.347Z,50.37
2019-05-15T09:28:39.038Z,50.66
2019-05-15T09:31:09.226Z,50.03
2019-05-15T09:33:38.858Z,49.15
2019-05-15T09:36:09.013Z,50.59
2019-05-15T09:38:39.093Z,50.40
2019-05-15T09:41:10.273Z,51.00
2019-05-15T09:43:42.215Z,50.30
2019-05-15T09:46:10.612Z,49.27
2019-05-15T09:48:39.721Z,48.83
2019-05-15T09:51:09.520Z,49.65
2019-05-15T09:53:39.478Z,49.47
2019-05-15T09:56:09.788Z,48.71
2019-05-15T09:58:38.607Z,50.11
2019-05-15T10:01:08.643Z,47.70
2019-05-15T10:03:39.110Z,48.48
2019-05-15T10:06:09.079Z,50.00
2019-05-15T10:08:39.734Z,49.05
2019-05-15T10:11:09.351Z,49.39
2019-05-15T10:13:38.616Z,48.97
2019-05-15T10:16:08.582Z,49.00
2019-05-15T10:18:39.084Z,48.26
2019-05-15T10:21:09.408Z,49.30
2019-05-15T10:23:40.385Z,48.05
2019-05-15T10:26:13.929Z,47.99
2019-05-15T10:28:40.890Z,50.41
2019-05-15T10:31:10.578Z,48.83
2019-05-15T10:33:39.947Z,47.91
2019-05-15T10:36:10.148Z,48.56
2019-05-15T10:38:39.418Z,47.28
2019-05-15T10:41:15.017Z,48.35
2019-05-15T10:43:45.940Z,48.59
2019-05-15T10:46:13.143Z,50.05
2019-05-15T10:48:42.438Z,47.04
2019-05-15T10:51:11.840Z,48.55
2019-05-15T10:53:40.689Z,49.69
2019-05-15T10:56:10.341Z,48.22
2019-05-15T10:58:39.485Z,47.24
2019-05-15T11:01:11.307Z,48.78
2019-05-15T11:03:40.160Z,47.17
2019-05-15T11:06:09.896Z,48.55
2019-05-15T11:08:40.743Z,48.54
2019-05-15T11:11:10.242Z,46.76
2019-05-15T11:13:39.235Z,47.81
2019-05-15T11:16:08.944Z,46.90
2019-05-15T11:18:39.362Z,46.80
2019-05-15T11:21:08.880Z,46.88
2019-05-15T11:23:39.441Z,46.94
2019-05-15T11:26:09.332Z,47.79
2019-05-15T11:28:39.328Z,46.22
2019-05-15T11:31:10.462Z,47.42
2019-05-15T11:33:40.126Z,48.96
2019-05-15T11:36:09.712Z,46.05
2019-05-15T11:38:38.694Z,45.11
2019-05-15T11:41:08.657Z,45.50
2019-05-15T11:43:38.715Z,45.38
2019-05-15T11:46:09.950Z,47.63
2019-05-15T11:48:40.521Z,45.87
2019-05-15T11:51:09.997Z,46.12
2019-05-15T11:53:39.803Z,46.00
2019-05-15T11:56:09.781Z,44.89
2019-05-15T11:58:39.043Z,45.69
2019-05-15T12:01:08.955Z,43.04
2019-05-15T12:03:38.514Z,46.24
2019-05-15T12:06:18.528Z,44.73
2019-05-15T12:08:38.722Z,44.06
2019-05-15T12:11:11.921Z,43.58
2019-05-15T12:13:38.838Z,44.78
2019-05-15T12:16:08.435Z,45.38
2019-05-15T12:18:39.013Z,44.03
2019-05-15T12:21:09.214Z,45.66
2019-05-15T12:23:38.875Z,45.32
2019-05-15T12:26:09.028Z,44.97
2019-05-15T12:31:10.222Z,44.49
2019-05-15T12:33:39.088Z,44.34
2019-05-15T12:36:10.795Z,44.24
2019-05-15T12:38:40.013Z,43.38
2019-05-15T13:01:18.443Z,43.33
2019-05-15T13:03:45.335Z,44.20
2019-05-15T13:06:14.261Z,44.30
2019-05-15T13:08:43.119Z,45.57
2019-05-15T13:11:15.155Z,45.09
2019-05-15T13:13:43.562Z,44.14
2019-05-15T13:16:12.966Z,45.81
2019-05-15T13:18:41.858Z,43.21
2019-05-15T13:21:11.772Z,47.15
2019-05-15T13:23:40.575Z,43.46
2019-05-15T13:26:22.962Z,41.79
2019-05-15T13:28:40.296Z,41.60
2019-05-15T13:31:09.901Z,41.60
2019-05-15T13:33:38.993Z,41.87
2019-05-15T13:36:09.050Z,45.46
2019-05-15T13:38:38.245Z,42.19
2019-05-15T13:41:09.487Z,42.00
2019-05-15T13:43:38.633Z,45.38
2019-05-15T13:46:09.893Z,42.36
2019-05-15T13:48:38.815Z,42.21
2019-05-15T13:51:07.890Z,42.09
2019-05-15T13:53:38.461Z,41.17
2019-05-15T13:56:08.118Z,42.38
2019-05-15T13:58:38.788Z,42.05
2019-05-15T14:01:09.372Z,42.71
2019-05-15T14:03:39.154Z,41.47
2019-05-15T14:06:10.065Z,41.33
2019-05-15T14:08:38.997Z,42.41
2019-05-15T14:11:08.829Z,40.99
2019-05-15T14:13:39.202Z,41.64
2019-05-15T14:16:09.745Z,42.33
2019-05-15T14:18:40.439Z,41.05
2019-05-15T14:21:09.955Z,40.37
2019-05-15T14:23:38.846Z,40.89
2019-05-15T14:26:17.800Z,43.75
2019-05-15T14:28:39.086Z,41.06
2019-05-15T14:31:09.726Z,40.94
2019-05-15T14:33:39.040Z,41.43
2019-05-15T14:36:08.808Z,41.04
2019-05-15T14:38:37.979Z,41.09
2019-05-15T14:41:08.844Z,40.42
2019-05-15T14:43:38.402Z,40.95
2019-05-15T14:46:08.098Z,39.79
2019-05-15T14:48:38.664Z,39.80
2019-05-15T14:51:08.775Z,40.48
2019-05-15T14:53:38.640Z,41.12
2019-05-15T14:56:08.785Z,41.83
2019-05-15T14:58:38.721Z,42.08
2019-05-15T15:01:12.480Z,40.58
2019-05-15T15:03:39.020Z,40.15
2019-05-15T15:06:08.762Z,38.90
2019-05-15T15:08:37.823Z,38.64
2019-05-15T15:11:08.737Z,38.32
2019-05-15T15:13:38.194Z,40.17
2019-05-15T15:16:08.376Z,38.75
2019-05-15T15:18:38.612Z,37.99
2019-05-15T15:21:08.761Z,39.52
2019-05-15T15:23:38.811Z,40.12
2019-05-15T15:26:08.968Z,38.86
2019-05-15T15:28:40.022Z,38.07
2019-05-15T15:31:09.505Z,39.19
2019-05-15T15:33:39.247Z,38.39
2019-05-15T15:36:08.924Z,40.12
2019-05-15T15:38:43.729Z,39.24
2019-05-15T15:41:08.973Z,38.26
2019-05-15T15:43:38.759Z,39.69
2019-05-15T15:46:08.747Z,40.98
2019-05-15T15:48:39.144Z,39.25
2019-05-15T15:51:09.359Z,39.25
2019-05-15T15:53:39.055Z,39.24
2019-05-15T15:56:10.619Z,39.47
2019-05-15T15:58:39.816Z,38.08
2019-05-15T16:01:09.320Z,38.05
2019-05-15T16:03:38.223Z,38.85
2019-05-15T16:06:07.210Z,39.08
2019-05-15T16:08:51.643Z,38.98
2019-05-15T16:11:08.880Z,42.06
2019-05-15T16:13:38.574Z,38.20
2019-05-15T16:16:08.560Z,39.09
2019-05-15T16:18:38.376Z,38.49
2019-05-15T16:21:08.325Z,39.95
2019-05-15T16:23:38.551Z,38.95
2019-05-15T16:26:09.265Z,38.58
2019-05-15T16:28:38.901Z,39.24
2019-05-15T16:31:08.937Z,37.87
2019-05-15T16:33:39.037Z,37.88
2019-05-15T16:36:09.065Z,40.30
2019-05-15T16:38:38.977Z,40.68
2019-05-15T16:41:08.953Z,39.26
2019-05-15T16:43:38.193Z,38.46
2019-05-15T16:46:09.165Z,40.02
2019-05-15T16:48:38.944Z,38.22
2019-05-15T16:51:10.902Z,37.46
2019-05-15T16:53:39.895Z,38.29
2019-05-15T16:56:09.297Z,39.87
2019-05-15T16:58:38.575Z,39.81
2019-05-15T17:01:08.007Z,40.62
2019-05-15T17:03:38.085Z,40.29
2019-05-15T17:06:09.426Z,40.20
2019-05-15T17:08:38.671Z,39.36
2019-05-15T17:11:08.470Z,39.47
2019-05-15T17:13:39.398Z,38.77
2019-05-15T17:16:08.216Z,39.86
2019-05-15T17:18:38.136Z,41.44
2019-05-15T17:21:10.100Z,40.78
2019-05-15T17:23:38.180Z,40.25
2019-05-15T17:26:08.891Z,39.39
2019-05-15T17:28:38.302Z,40.73
2019-05-15T17:31:09.208Z,39.41
2019-05-15T17:33:38.237Z,39.66
2019-05-15T17:36:07.326Z,40.39
2019-05-15T17:38:38.122Z,40.50
2019-05-15T17:41:08.472Z,40.14
2019-05-15T17:43:37.907Z,39.53
2019-05-15T17:46:08.898Z,39.62
2019-05-15T17:48:38.918Z,40.78
2019-05-15T17:51:09.118Z,40.80
2019-05-15T17:53:38.475Z,40.52
2019-05-15T17:56:08.476Z,41.59
2019-05-15T17:58:38.118Z,41.06
2019-05-15T18:01:08.858Z,40.38
2019-05-15T18:03:39.197Z,40.12
2019-05-15T18:06:08.561Z,40.68
2019-05-15T18:08:39.046Z,42.28
2019-05-15T18:11:08.577Z,42.06
2019-05-15T18:13:38.191Z,41.86
2019-05-15T18:16:13.396Z,41.24
2019-05-15T18:18:38.752Z,41.73
2019-05-15T18:21:08.907Z,42.31
2019-05-15T18:23:38.859Z,42.31
2019-05-15T18:26:09.029Z,41.64
2019-05-15T18:28:38.881Z,42.20
2019-05-15T18:31:08.970Z,41.78
2019-05-15T18:33:38.690Z,43.52
2019-05-15T18:36:09.575Z,41.77
2019-05-15T18:38:38.876Z,42.49
2019-05-15T18:41:09.088Z,45.31
2019-05-15T18:43:38.109Z,46.89
2019-05-15T18:46:09.033Z,46.04
2019-05-15T18:48:38.042Z,46.37
2019-05-15T18:51:08.119Z,46.60
2019-05-15T18:53:39.026Z,48.20
2019-05-15T18:56:09.150Z,48.57
2019-05-15T18:58:38.252Z,48.13
2019-05-15T19:01:09.280Z,48.98
2019-05-15T19:03:38.693Z,48.36
2019-05-15T19:06:08.891Z,49.34
2019-05-15T19:08:38.735Z,49.31
2019-05-15T19:11:07.996Z,49.16
2019-05-15T19:13:38.788Z,49.26
2019-05-15T19:16:09.565Z,50.49
2019-05-15T19:18:38.634Z,50.46
2019-05-15T19:21:08.176Z,50.91
2019-05-15T19:23:38.085Z,51.34
2019-05-15T19:26:09.253Z,50.13
2019-05-15T19:28:39.238Z,51.21
2019-05-15T19:31:22.918Z,51.64
2019-05-15T19:33:43.584Z,51.36
2019-05-15T19:36:12.684Z,51.83
2019-05-15T19:38:41.566Z,52.13
2019-05-15T19:41:11.418Z,51.65
2019-05-15T19:43:40.785Z,53.39
2019-05-15T19:46:10.699Z,53.24
2019-05-15T19:48:39.625Z,52.38
2019-05-15T19:51:10.486Z,52.55
2019-05-15T19:53:39.426Z,52.76
2019-05-15T19:56:09.111Z,52.98
2019-05-15T19:58:37.920Z,53.32
2019-05-15T20:01:08.142Z,53.67
2019-05-15T20:03:49.175Z,54.31
2019-05-15T20:06:08.465Z,54.06
2019-05-15T20:08:38.539Z,54.13
2019-05-15T20:11:10.420Z,54.60
2019-05-15T20:13:38.948Z,54.06
2019-05-15T20:16:08.966Z,54.02
2019-05-15T20:18:38.573Z,54.31
2019-05-15T20:21:08.967Z,54.39
2019-05-15T20:23:38.279Z,54.63
2019-05-15T20:26:08.439Z,54.76
2019-05-15T20:28:39.270Z,54.58
2019-05-15T20:31:09.178Z,54.12
2019-05-15T20:33:38.070Z,55.32
2019-05-15T20:36:09.048Z,55.73
2019-05-15T20:38:39.512Z,56.59
2019-05-15T20:41:09.576Z,55.53
2019-05-15T20:43:38.749Z,55.73
2019-05-15T20:46:08.620Z,56.50
2019-05-15T20:48:38.268Z,56.33
2019-05-15T20:51:08.185Z,55.85
2019-05-15T20:53:38.008Z,56.44
2019-05-15T20:56:08.368Z,56.02
2019-05-15T20:58:38.296Z,55.80
2019-05-15T21:01:09.125Z,56.36
2019-05-15T21:03:38.174Z,55.91
2019-05-15T21:06:09.170Z,56.88
2019-05-15T21:08:38.626Z,56.05
2019-05-15T21:11:11.869Z,56.15
2019-05-15T21:13:41.013Z,55.79
2019-05-15T21:16:10.207Z,55.64
2019-05-15T21:18:41.447Z,55.95
2019-05-15T21:21:10.503Z,56.55
2019-05-15T21:23:39.544Z,56.76
2019-05-15T21:26:11.048Z,56.55
2019-05-15T21:28:40.092Z,57.49
2019-05-15T21:31:09.812Z,57.98
2019-05-15T21:33:38.991Z,57.45
2019-05-15T21:36:08.063Z,58.74
2019-05-15T21:38:38.874Z,57.69
2019-05-15T21:41:08.101Z,56.32
2019-05-15T21:43:37.060Z,57.22
2019-05-15T21:46:08.124Z,56.95
2019-05-15T21:48:38.262Z,58.37
2019-05-15T21:51:11.375Z,57.64
2019-05-15T21:53:38.969Z,57.49
2019-05-15T21:56:09.584Z,57.31
2019-05-15T21:58:38.459Z,57.43
2019-05-15T22:01:10.497Z,58.83
2019-05-15T22:03:39.822Z,58.05
2019-05-15T22:06:09.430Z,57.94
2019-05-15T22:08:38.537Z,57.77
2019-05-15T22:11:07.733Z,58.35
2019-05-15T22:13:39.090Z,58.73
2019-05-15T22:16:08.198Z,58.87
2019-05-15T22:18:38.421Z,58.94
2019-05-15T22:21:07.939Z,59.78
2019-05-15T22:23:38.459Z,60.74
2019-05-15T22:26:08.423Z,59.70
2019-05-15T22:28:38.607Z,59.71
2019-05-15T22:31:08.908Z,60.16
2019-05-15T22:33:37.886Z,60.21
2019-05-15T22:36:08.398Z,59.90
2019-05-15T22:38:37.407Z,59.37
2019-05-15T22:41:08.265Z,59.30
2019-05-15T22:43:39.065Z,59.17
2019-05-15T22:46:10.738Z,58.99
2019-05-15T22:48:38.296Z,59.09
2019-05-15T22:51:07.290Z,60.92
2019-05-15T22:53:38.172Z,61.41
2019-05-15T22:56:09.138Z,60.38
2019-05-15T22:58:38.679Z,60.15
2019-05-15T23:01:09.363Z,60.72
2019-05-15T23:03:39.396Z,59.48
2019-05-15T23:06:09.237Z,59.62
2019-05-15T23:08:38.591Z,59.45
2019-05-15T23:11:09.594Z,59.30
2019-05-15T23:13:38.996Z,60.50
2019-05-15T23:16:08.900Z,60.77
2019-05-15T23:18:37.791Z,60.60
2019-05-15T23:21:08.468Z,59.99
2019-05-15T23:23:38.024Z,59.89
2019-05-15T23:26:07.025Z,59.82
2019-05-15T23:28:35.914Z,59.82
2019-05-15T23:31:04.808Z,60.95
2019-05-15T23:33:33.695Z,61.99
2019-05-15T23:36:02.689Z,62.16
2019-05-15T23:38:31.580Z,61.54
2019-05-15T23:41:00.472Z,63.65
2019-05-15T23:43:29.378Z,63.45
2019-05-15T23:45:58.913Z,62.66
2019-05-15T23:48:28.463Z,62.58
2019-05-15T23:50:59.137Z,62.32
2019-05-15T23:53:28.825Z,61.87
2019-05-15T23:55:58.760Z,61.34
2019-05-15T23:58:29.165Z,65.42
